Time;durP1;ratioP1;P1;durP2;ratioP2;P2;SDS_P1;SDS_P2;PMS_P1;PMS_P2;Temp;Humidity;BMP_temperature;BMP_pressure;BME280_temperature;BME280_humidity;BME280_pressure;Samples;Min_cycle;Max_cycle;Signal;HPM_P1;HPM_P2
2022/10/16 00:01:47;;;;;;;2.15;1.40;;;15.20;99.90;;;;;;5085439;28;20032;-77
2022/10/16 00:04:13;;;;;;;2.90;2.00;;;15.20;99.90;;;;;;5086091;28;20020;-77
2022/10/16 00:06:39;;;;;;;2.92;2.15;;;15.20;99.90;;;;;;5087555;28;20036;-77
2022/10/16 00:09:05;;;;;;;4.53;2.70;;;15.20;99.90;;;;;;5086003;28;20027;-77
2022/10/16 00:11:37;;;;;;;3.75;2.42;;;15.10;99.90;;;;;;5084048;28;20075;-76
2022/10/16 00:14:06;;;;;;;3.42;2.42;;;15.10;99.90;;;;;;5084507;28;20103;-77
2022/10/16 00:16:32;;;;;;;3.60;1.95;;;15.10;99.90;;;;;;5092299;28;20037;-77
2022/10/16 00:18:58;;;;;;;5.18;1.98;;;15.10;99.90;;;;;;5098854;28;20110;-77
2022/10/16 00:21:26;;;;;;;3.38;2.00;;;15.00;99.90;;;;;;5092400;28;20040;-77
2022/10/16 00:23:56;;;;;;;6.13;2.17;;;15.00;99.90;;;;;;5088744;28;20024;-77
2022/10/16 00:26:22;;;;;;;3.10;1.50;;;15.00;99.90;;;;;;5091622;28;20035;-77
2022/10/16 00:28:49;;;;;;;6.20;1.90;;;14.90;99.90;;;;;;5093685;28;20463;-77
2022/10/16 00:31:17;;;;;;;5.93;2.03;;;14.90;99.90;;;;;;5092731;28;20031;-77
2022/10/16 00:33:43;;;;;;;2.58;2.20;;;14.90;99.90;;;;;;5093832;28;20035;-77
2022/10/16 00:36:11;;;;;;;8.55;1.98;;;14.90;99.90;;;;;;5092330;28;20428;-77
2022/10/16 00:38:40;;;;;;;4.80;1.75;;;14.90;99.90;;;;;;5104359;28;20859;-77
2022/10/16 00:41:12;;;;;;;6.28;1.65;;;14.90;99.90;;;;;;5090504;28;20051;-77
2022/10/16 00:43:45;;;;;;;7.93;1.42;;;14.80;99.90;;;;;;5074944;28;20419;-76
2022/10/16 00:46:21;;;;;;;3.53;1.75;;;14.80;99.90;;;;;;5091959;28;20170;-77
2022/10/16 00:49:16;;;;;;;4.00;1.60;;;14.80;99.90;;;;;;5093195;28;20123;-77
2022/10/16 00:51:51;;;;;;;1.48;1.23;;;14.70;99.90;;;;;;5078110;28;20527;-76
2022/10/16 00:54:21;;;;;;;2.08;1.63;;;14.70;99.90;;;;;;5093286;28;20091;-77
2022/10/16 00:56:47;;;;;;;3.05;2.08;;;14.70;99.90;;;;;;5088731;28;20039;-77
2022/10/16 00:59:27;;;;;;;3.55;2.30;;;14.60;99.90;;;;;;5090622;28;20066;-76
2022/10/16 01:01:54;;;;;;;2.30;2.08;;;14.60;99.90;;;;;;5074605;28;20036;-76
2022/10/16 01:04:20;;;;;;;3.70;2.20;;;14.60;99.90;;;;;;5092442;28;20073;-77
2022/10/16 01:07:01;;;;;;;4.38;3.00;;;14.60;99.90;;;;;;5091749;28;20032;-76
2022/10/16 01:09:50;;;;;;;4.18;3.10;;;14.60;99.90;;;;;;5073899;28;20028;-77
2022/10/16 01:12:27;;;;;;;4.47;3.30;;;14.60;99.90;;;;;;5092153;28;20024;-78
2022/10/16 01:14:58;;;;;;;7.15;2.92;;;14.60;99.90;;;;;;5087474;28;20377;-77
2022/10/16 01:17:46;;;;;;;3.28;2.60;;;14.60;99.90;;;;;;5085504;28;20063;-77
2022/10/16 01:20:34;;;;;;;4.78;2.22;;;14.60;99.90;;;;;;5081860;28;20062;-78
2022/10/16 01:23:20;;;;;;;3.03;2.30;;;14.60;99.90;;;;;;5092765;28;20477;-77
2022/10/16 01:26:14;;;;;;;3.08;2.45;;;14.60;99.90;;;;;;5091845;28;20059;-77
2022/10/16 01:29:11;;;;;;;5.35;2.13;;;14.70;99.90;;;;;;5092807;28;20491;-77
2022/10/16 01:31:40;;;;;;;5.32;2.45;;;14.60;99.90;;;;;;5081563;28;20020;-77
2022/10/16 01:34:13;;;;;;;8.40;2.15;;;14.60;99.90;;;;;;5089818;28;20034;-77
2022/10/16 01:37:05;;;;;;;2.17;1.73;;;14.60;99.90;;;;;;5090069;28;20032;-77
2022/10/16 01:39:34;;;;;;;3.72;2.13;;;14.60;99.90;;;;;;5087565;28;20040;-77
2022/10/16 01:42:15;;;;;;;6.38;1.90;;;14.60;99.90;;;;;;5092074;28;20044;-76
2022/10/16 01:44:42;;;;;;;11.02;1.95;;;14.60;99.90;;;;;;5074024;28;20377;-76
2022/10/16 01:47:10;;;;;;;4.03;2.03;;;14.60;99.90;;;;;;5092156;28;20031;-76
2022/10/16 01:49:39;;;;;;;1.90;1.60;;;14.70;99.90;;;;;;5089938;28;20047;-76
2022/10/16 01:52:11;;;;;;;5.75;2.03;;;14.70;99.90;;;;;;5090031;28;20381;-76
2022/10/16 01:54:40;;;;;;;4.78;1.65;;;14.70;99.90;;;;;;5091887;28;20024;-76
2022/10/16 01:57:07;;;;;;;1.80;1.65;;;14.70;99.90;;;;;;5091668;28;20052;-76
2022/10/16 01:59:38;;;;;;;3.22;1.88;;;14.60;99.90;;;;;;5090747;28;20040;-76
2022/10/16 02:02:06;;;;;;;;;;;14.60;99.90;;;;;;5092342;28;20418;-77
2022/10/16 02:04:53;;;;;;;2.65;2.13;;;14.70;99.90;;;;;;5072764;28;19915;-76
2022/10/16 02:07:19;;;;;;;1.90;1.70;;;14.60;99.90;;;;;;5086391;28;20052;-76
2022/10/16 02:09:45;;;;;;;3.08;2.15;;;14.70;99.90;;;;;;5091299;28;20094;-75
2022/10/16 02:12:29;;;;;;;3.58;1.88;;;14.60;99.90;;;;;;5091685;28;20489;-75
2022/10/16 02:14:55;;;;;;;2.00;1.77;;;14.60;99.90;;;;;;5091915;28;20028;-75
2022/10/16 02:17:21;;;;;;;3.30;1.95;;;14.60;99.90;;;;;;5090720;28;20421;-75
2022/10/16 02:19:49;;;;;;;2.20;1.98;;;14.60;99.90;;;;;;5090527;28;20496;-75
2022/10/16 02:22:32;;;;;;;3.38;1.90;;;14.60;99.90;;;;;;5090928;28;20031;-76
2022/10/16 02:25:24;;;;;;;2.75;2.30;;;14.60;99.90;;;;;;5086065;28;20027;-76
2022/10/16 02:28:24;;;;;;;7.03;2.30;;;14.60;99.90;;;;;;5069721;28;20036;-76
2022/10/16 02:30:58;;;;;;;7.88;2.22;;;14.60;99.90;;;;;;5093754;28;20051;-76
2022/10/16 02:33:26;;;;;;;4.05;2.20;;;14.60;99.90;;;;;;5101863;28;20039;-75
2022/10/16 02:35:53;;;;;;;2.35;2.00;;;14.60;99.90;;;;;;5090973;28;20024;-75
2022/10/16 02:38:21;;;;;;;3.47;2.05;;;14.60;99.90;;;;;;5072884;28;20028;-75
2022/10/16 02:40:46;;;;;;;5.07;2.25;;;14.60;99.90;;;;;;5083313;28;20020;-76
2022/10/16 02:43:13;;;;;;;6.13;2.50;;;14.60;99.90;;;;;;5091236;28;20028;-75
2022/10/16 02:45:38;;;;;;;2.70;1.88;;;14.60;99.90;;;;;;5090496;28;20035;-76
2022/10/16 02:48:05;;;;;;;2.47;2.08;;;14.60;99.90;;;;;;5091517;28;20028;-76
2022/10/16 02:50:30;;;;;;;4.15;2.17;;;14.60;99.90;;;;;;5088926;28;20059;-76
2022/10/16 02:52:56;;;;;;;2.97;1.88;;;14.50;99.90;;;;;;5092158;28;20059;-76
2022/10/16 02:55:22;;;;;;;3.00;1.98;;;14.50;99.90;;;;;;5086632;28;20528;-76
2022/10/16 02:57:47;;;;;;;3.00;2.05;;;14.50;99.90;;;;;;5089515;28;20035;-76
2022/10/16 03:00:15;;;;;;;3.22;2.40;;;14.50;99.90;;;;;;5090353;28;20036;-76
2022/10/16 03:02:41;;;;;;;4.05;2.22;;;14.50;99.90;;;;;;5090386;28;20116;-76
2022/10/16 03:05:07;;;;;;;2.20;2.00;;;14.50;99.90;;;;;;5091134;28;20416;-76
2022/10/16 03:07:33;;;;;;;3.08;2.38;;;14.50;99.90;;;;;;5090228;28;20077;-76
2022/10/16 03:10:00;;;;;;;2.92;2.00;;;14.50;99.90;;;;;;5090673;28;20044;-76
2022/10/16 03:12:26;;;;;;;2.30;1.83;;;14.40;99.90;;;;;;5090223;28;20031;-76
2022/10/16 03:14:52;;;;;;;3.63;2.38;;;14.40;99.90;;;;;;5088277;28;20032;-76
2022/10/16 03:17:17;;;;;;;2.60;1.90;;;14.40;99.90;;;;;;5090016;28;20480;-77
2022/10/16 03:19:43;;;;;;;5.35;1.95;;;14.40;99.90;;;;;;5072280;28;20031;-76
2022/10/16 03:22:09;;;;;;;8.55;1.83;;;14.40;99.90;;;;;;5090357;28;20040;-76
2022/10/16 03:24:34;;;;;;;3.67;1.70;;;14.40;99.90;;;;;;5090263;28;20035;-76
2022/10/16 03:27:00;;;;;;;2.65;1.80;;;14.40;99.90;;;;;;5072605;28;20133;-76
2022/10/16 03:29:26;;;;;;;8.45;1.95;;;14.30;99.90;;;;;;5090252;28;20381;-76
2022/10/16 03:31:51;;;;;;;6.80;1.48;;;14.30;99.90;;;;;;5086760;28;20032;-76
2022/10/16 03:34:17;;;;;;;3.95;1.65;;;14.30;99.90;;;;;;5090446;28;20480;-76
2022/10/16 03:36:42;;;;;;;1.60;1.50;;;14.30;99.90;;;;;;5091045;28;20031;-76
2022/10/16 03:39:08;;;;;;;6.72;1.52;;;14.30;99.90;;;;;;5091030;28;20036;-75
2022/10/16 03:41:34;;;;;;;4.38;1.50;;;14.30;99.90;;;;;;5088623;28;20028;-75
2022/10/16 03:43:59;;;;;;;4.57;1.30;;;14.30;99.90;;;;;;5079624;28;20462;-76
2022/10/16 03:46:25;;;;;;;4.45;1.70;;;14.30;99.90;;;;;;5089200;28;20028;-76
2022/10/16 03:48:50;;;;;;;2.53;1.58;;;14.20;99.90;;;;;;5089651;28;20056;-75
2022/10/16 03:51:16;;;;;;;2.63;1.70;;;14.30;99.90;;;;;;5089554;28;20473;-76
2022/10/16 03:53:41;;;;;;;2.15;1.48;;;14.30;99.90;;;;;;5090332;28;20078;-75
2022/10/16 03:56:07;;;;;;;2.70;1.70;;;14.30;99.90;;;;;;5090752;28;20030;-75
2022/10/16 03:58:33;;;;;;;4.13;1.58;;;14.20;99.90;;;;;;5092037;28;20658;-75
2022/10/16 04:00:58;;;;;;;5.45;1.60;;;14.30;99.90;;;;;;5093561;28;20492;-75
2022/10/16 04:03:24;;;;;;;3.85;1.35;;;14.30;99.90;;;;;;5090919;28;20077;-75
2022/10/16 04:05:50;;;;;;;4.28;1.60;;;14.20;99.90;;;;;;5076296;28;20028;-75
2022/10/16 04:08:16;;;;;;;3.28;1.60;;;14.30;99.90;;;;;;5094250;28;20150;-79
2022/10/16 04:10:45;;;;;;;3.33;1.40;;;14.20;99.90;;;;;;5093406;28;20103;-77
2022/10/16 04:13:11;;;;;;;3.58;1.60;;;14.20;99.90;;;;;;5095148;28;20028;-76
2022/10/16 04:15:36;;;;;;;1.88;1.40;;;14.20;99.90;;;;;;5094141;28;20244;-76
2022/10/16 04:18:02;;;;;;;5.88;1.60;;;14.20;99.90;;;;;;5094948;28;20480;-76
2022/10/16 04:20:28;;;;;;;4.93;1.88;;;14.20;99.90;;;;;;5084959;28;20024;-76
2022/10/16 04:22:54;;;;;;;1.52;1.42;;;14.20;99.90;;;;;;5094753;28;20111;-76
2022/10/16 04:25:19;;;;;;;1.52;1.20;;;14.20;99.90;;;;;;5093713;28;20032;-76
2022/10/16 04:27:45;;;;;;;6.57;1.83;;;14.10;99.90;;;;;;5076582;28;20020;-77
2022/10/16 04:30:10;;;;;;;2.80;1.27;;;14.10;99.90;;;;;;5094368;28;20024;-76
2022/10/16 04:32:36;;;;;;;3.70;1.20;;;14.10;99.90;;;;;;5094193;28;20096;-75
2022/10/16 04:35:02;;;;;;;2.42;1.30;;;14.00;99.90;;;;;;5091189;28;20032;-75
2022/10/16 04:37:28;;;;;;;9.00;1.70;;;14.00;99.90;;;;;;5089558;28;20085;-75
2022/10/16 04:39:54;;;;;;;4.07;1.42;;;14.00;99.90;;;;;;5093922;28;20024;-75
2022/10/16 04:42:20;;;;;;;4.53;1.63;;;14.00;99.90;;;;;;5090167;28;20043;-75
2022/10/16 04:44:46;;;;;;;2.83;1.45;;;14.00;99.90;;;;;;5093864;28;20031;-75
2022/10/16 04:47:13;;;;;;;2.67;1.60;;;14.00;99.90;;;;;;5092709;28;20469;-75
2022/10/16 04:49:38;;;;;;;3.70;1.42;;;14.00;99.90;;;;;;5092601;28;20066;-75
2022/10/16 04:52:05;;;;;;;1.88;1.23;;;14.00;99.90;;;;;;5074370;28;20056;-75
2022/10/16 04:54:30;;;;;;;2.25;1.45;;;14.00;99.90;;;;;;5087114;28;20131;-75
2022/10/16 04:56:56;;;;;;;1.73;1.55;;;14.00;99.90;;;;;;5092991;28;20513;-75
2022/10/16 04:59:22;;;;;;;1.55;1.38;;;14.00;99.90;;;;;;5092847;28;20453;-75
2022/10/16 05:01:48;;;;;;;3.10;1.33;;;14.00;99.90;;;;;;5091886;28;20036;-75
2022/10/16 05:04:14;;;;;;;5.18;1.60;;;14.00;99.90;;;;;;5092920;28;20040;-75
2022/10/16 05:06:41;;;;;;;5.10;1.50;;;14.00;99.90;;;;;;5092208;28;20020;-75
2022/10/16 05:09:08;;;;;;;3.95;1.60;;;14.00;99.90;;;;;;5074970;28;20047;-75
2022/10/16 05:11:34;;;;;;;2.80;1.52;;;13.90;99.90;;;;;;5084865;28;20173;-77
2022/10/16 05:14:00;;;;;;;2.15;1.30;;;14.00;99.90;;;;;;5093396;28;20099;-75
2022/10/16 05:16:26;;;;;;;2.50;1.27;;;14.00;99.90;;;;;;5091555;28;20481;-75
2022/10/16 05:18:52;;;;;;;2.35;1.40;;;14.00;99.90;;;;;;5092873;28;20024;-76
2022/10/16 05:21:18;;;;;;;2.92;1.65;;;13.90;99.90;;;;;;5091578;28;20043;-76
2022/10/16 05:23:43;;;;;;;13.63;1.95;;;14.00;99.90;;;;;;5091911;28;20107;-75
2022/10/16 05:26:09;;;;;;;4.03;1.52;;;13.90;99.90;;;;;;5092410;28;20102;-75
2022/10/16 05:28:35;;;;;;;3.78;1.40;;;13.90;99.90;;;;;;5086109;28;20020;-75
2022/10/16 05:31:07;;;;;;;3.85;1.40;;;13.90;99.90;;;;;;5073451;28;20032;-75
2022/10/16 05:33:33;;;;;;;4.63;1.80;;;13.90;99.90;;;;;;5091573;28;20028;-75
2022/10/16 05:36:03;;;;;;;5.00;1.70;;;13.90;99.90;;;;;;5089447;28;20031;-75
2022/10/16 05:38:29;;;;;;;3.78;1.55;;;13.90;99.90;;;;;;5084094;28;20086;-75
2022/10/16 05:40:54;;;;;;;2.15;1.88;;;13.80;99.90;;;;;;5073790;28;20036;-75
2022/10/16 05:43:20;;;;;;;3.70;1.80;;;13.80;99.90;;;;;;5092059;28;20056;-75
2022/10/16 05:45:57;;;;;;;2.92;1.88;;;13.80;99.90;;;;;;5091639;28;20446;-76
2022/10/16 05:48:24;;;;;;;5.18;2.00;;;13.80;99.90;;;;;;5091229;28;20048;-76
2022/10/16 05:51:00;;;;;;;4.78;1.63;;;13.80;99.90;;;;;;5092208;28;20024;-75
2022/10/16 05:53:28;;;;;;;1.85;1.48;;;13.70;99.90;;;;;;5086580;28;20024;-76
2022/10/16 05:55:54;;;;;;;3.45;1.33;;;13.70;99.90;;;;;;5091145;28;20457;-76
2022/10/16 05:58:20;;;;;;;4.93;1.77;;;13.70;99.90;;;;;;5091531;28;20044;-75
2022/10/16 06:00:56;;;;;;;3.80;1.80;;;13.70;99.90;;;;;;5092023;28;20045;-75
2022/10/16 06:03:22;;;;;;;4.03;1.80;;;13.80;99.90;;;;;;5091596;28;20035;-76
2022/10/16 06:05:48;;;;;;;3.97;1.42;;;13.80;99.90;;;;;;5080426;28;20024;-75
2022/10/16 06:08:14;;;;;;;11.65;1.98;;;13.80;99.90;;;;;;5066175;28;20499;-77
2022/10/16 06:10:39;;;;;;;3.53;1.80;;;13.80;99.90;;;;;;5065865;28;20028;-76
2022/10/16 06:13:05;;;;;;;2.90;1.65;;;13.90;99.90;;;;;;5087364;28;20688;-75
2022/10/16 06:15:30;;;;;;;7.28;1.63;;;13.90;99.90;;;;;;5080708;28;20028;-77
2022/10/16 06:17:56;;;;;;;2.65;1.20;;;13.90;99.90;;;;;;5063620;28;20029;-75
2022/10/16 06:20:21;;;;;;;2.40;1.70;;;14.00;99.90;;;;;;5060925;28;20024;-76
2022/10/16 06:22:47;;;;;;;2.53;1.60;;;14.00;99.90;;;;;;5084026;28;20047;-75
2022/10/16 06:25:13;;;;;;;4.22;2.33;;;14.00;99.90;;;;;;5079875;28;20024;-76
2022/10/16 06:27:41;;;;;;;3.70;1.35;;;14.00;99.90;;;;;;5078495;28;20056;-75
2022/10/16 06:30:08;;;;;;;4.10;1.67;;;14.10;99.90;;;;;;5079543;28;20108;-76
2022/10/16 06:32:34;;;;;;;2.42;1.55;;;14.10;99.90;;;;;;5079659;28;20020;-74
2022/10/16 06:35:00;;;;;;;3.83;1.83;;;14.10;99.90;;;;;;5079232;28;20450;-75
2022/10/16 06:37:26;;;;;;;1.65;1.40;;;14.20;99.90;;;;;;5084947;28;20118;-77
2022/10/16 06:39:52;;;;;;;1.83;1.50;;;14.20;99.90;;;;;;5080800;28;20027;-76
2022/10/16 06:42:18;;;;;;;5.10;1.52;;;14.30;99.90;;;;;;5075336;28;20028;-77
2022/10/16 06:44:44;;;;;;;6.18;1.60;;;14.30;99.90;;;;;;5082103;28;20099;-76
2022/10/16 06:47:10;;;;;;;4.75;1.48;;;14.40;99.90;;;;;;5081975;28;20020;-73
2022/10/16 06:49:36;;;;;;;2.35;1.52;;;14.50;99.90;;;;;;5079032;28;20039;-75
2022/10/16 06:52:02;;;;;;;3.65;1.80;;;14.50;99.90;;;;;;5062900;28;20054;-74
2022/10/16 06:54:28;;;;;;;4.40;1.40;;;14.60;99.90;;;;;;5058966;28;20116;-76
2022/10/16 06:56:54;;;;;;;3.72;1.80;;;14.60;99.90;;;;;;5078465;28;20017;-80
2022/10/16 06:59:23;;;;;;;3.45;1.65;;;14.70;99.90;;;;;;5073945;28;20024;-81
2022/10/16 07:01:48;;;;;;;2.75;1.42;;;14.80;99.90;;;;;;5080794;28;20115;-78
2022/10/16 07:04:14;;;;;;;4.97;1.77;;;14.80;99.90;;;;;;5076889;28;20103;-78
2022/10/16 07:06:40;;;;;;;4.05;1.70;;;14.90;99.90;;;;;;5079826;28;20052;-85
2022/10/16 07:09:09;;;;;;;33.42;15.35;;;14.90;99.90;;;;;;5076880;28;20033;-79
2022/10/16 07:11:36;;;;;;;38.60;17.80;;;15.00;99.90;;;;;;5077498;28;20099;-79
2022/10/16 07:14:02;;;;;;;14.20;4.82;;;15.10;99.90;;;;;;5082146;28;20024;-78
2022/10/16 07:16:30;;;;;;;7.10;2.40;;;15.20;99.90;;;;;;5084678;28;20035;-78
2022/10/16 07:18:58;;;;;;;4.80;2.40;;;15.30;99.90;;;;;;5081036;28;20044;-77
2022/10/16 07:21:29;;;;;;;6.82;2.03;;;15.30;99.90;;;;;;5083786;28;20479;-81
2022/10/16 07:23:57;;;;;;;3.03;2.08;;;15.40;99.90;;;;;;5079347;28;20033;-76
2022/10/16 07:26:24;;;;;;;5.45;2.10;;;15.50;99.90;;;;;;5081992;28;20032;-80
2022/10/16 07:28:50;;;;;;;8.38;2.35;;;15.50;99.90;;;;;;5083687;28;20060;-80
2022/10/16 07:31:16;;;;;;;4.43;2.45;;;15.60;99.90;;;;;;5080108;28;20074;-80
2022/10/16 07:33:44;;;;;;;3.78;2.28;;;15.60;99.90;;;;;;5080268;28;20024;-81
2022/10/16 07:36:10;;;;;;;4.63;2.35;;;15.60;99.90;;;;;;5085016;28;20020;-80
2022/10/16 07:38:35;;;;;;;4.18;2.40;;;15.60;99.90;;;;;;5080017;28;20024;-80
2022/10/16 07:41:03;;;;;;;3.38;2.40;;;15.60;99.90;;;;;;5084678;28;20097;-81
2022/10/16 07:43:30;;;;;;;3.65;2.38;;;15.60;99.90;;;;;;5080983;28;20074;-79
2022/10/16 07:45:56;;;;;;;4.20;2.35;;;15.60;99.90;;;;;;5079042;28;20020;-79
2022/10/16 07:48:22;;;;;;;3.53;2.63;;;15.70;99.90;;;;;;5077593;28;20120;-78
2022/10/16 07:50:48;;;;;;;6.82;2.60;;;15.70;99.90;;;;;;5065044;28;20729;-78
2022/10/16 07:53:14;;;;;;;3.53;2.50;;;15.70;99.90;;;;;;5064430;28;20032;-82
2022/10/16 07:55:40;;;;;;;3.90;2.50;;;15.80;99.90;;;;;;5061961;28;20040;-80
2022/10/16 07:58:06;;;;;;;3.10;2.60;;;15.90;99.90;;;;;;5062051;28;20067;-79
2022/10/16 08:00:32;;;;;;;4.20;2.22;;;15.90;99.90;;;;;;5064054;28;20036;-76
2022/10/16 08:03:02;;;;;;;3.53;2.40;;;16.00;99.90;;;;;;5065786;28;20480;-80
2022/10/16 08:05:32;;;;;;;9.02;2.40;;;16.10;99.90;;;;;;5060842;28;20457;-80
2022/10/16 08:07:58;;;;;;;3.80;2.60;;;16.20;99.90;;;;;;5066993;28;20051;-85
2022/10/16 08:10:26;;;;;;;4.65;2.47;;;16.30;99.90;;;;;;5071785;28;20048;-80
2022/10/16 08:12:52;;;;;;;3.88;2.63;;;16.40;99.90;;;;;;5067496;28;20150;-80
2022/10/16 08:15:18;;;;;;;10.80;2.72;;;16.60;99.90;;;;;;5052316;28;20461;-81
2022/10/16 08:17:44;;;;;;;14.23;3.00;;;16.70;99.90;;;;;;5070252;28;20029;-81
2022/10/16 08:20:10;;;;;;;6.60;2.28;;;16.80;99.90;;;;;;5067788;28;20028;-80
2022/10/16 08:22:36;;;;;;;7.75;2.90;;;17.00;99.90;;;;;;5066841;28;20160;-81
2022/10/16 08:25:02;;;;;;;8.75;2.42;;;17.20;99.90;;;;;;5065803;28;20107;-77
2022/10/16 08:27:32;;;;;;;7.78;2.08;;;17.30;99.90;;;;;;5048384;28;20021;-79
2022/10/16 08:29:58;;;;;;;;;;;17.60;99.90;;;;;;5048807;28;20429;-78
2022/10/16 08:32:23;;;;;;;3.13;2.15;;;17.80;99.90;;;;;;5067296;28;19928;-80
2022/10/16 08:34:49;;;;;;;7.90;2.60;;;17.80;99.90;;;;;;5050617;28;20056;-80
2022/10/16 08:37:15;;;;;;;13.85;2.60;;;18.00;99.90;;;;;;5074486;28;20032;-82
2022/10/16 08:39:40;;;;;;;6.15;2.22;;;18.10;99.90;;;;;;5068636;28;20036;-78
2022/10/16 08:42:35;;;;;;;4.60;2.40;;;18.30;99.90;;;;;;5046459;28;20033;-72
2022/10/16 08:45:06;;;;;;;3.65;2.08;;;18.40;99.90;;;;;;5039611;28;20044;-73
2022/10/16 08:48:04;;;;;;;5.53;1.67;;;18.30;99.90;;;;;;5066265;28;20027;-72
2022/10/16 08:50:32;;;;;;;6.10;1.40;;;18.50;99.90;;;;;;5090007;28;20481;-72
2022/10/16 08:52:59;;;;;;;8.20;1.80;;;18.50;99.90;;;;;;5093116;28;20109;-72
2022/10/16 08:55:53;;;;;;;5.43;2.10;;;18.60;99.90;;;;;;5091955;28;20075;-71
2022/10/16 08:58:26;;;;;;;6.88;1.70;;;18.60;99.90;;;;;;5091248;28;20039;-72
2022/10/16 09:00:57;;;;;;;4.25;1.88;;;18.60;99.90;;;;;;5092301;28;20027;-73
2022/10/16 09:03:59;;;;;;;2.95;1.60;;;18.60;99.90;;;;;;5089416;28;20036;-72
2022/10/16 09:06:59;;;;;;;1.75;1.60;;;18.70;99.90;;;;;;5091859;28;20393;-72
2022/10/16 09:09:40;;;;;;;5.03;1.40;;;18.80;99.90;;;;;;5092431;28;20024;-73
2022/10/16 09:12:21;;;;;;;2.63;1.48;;;19.00;99.90;;;;;;5088599;28;20024;-73
2022/10/16 09:14:49;;;;;;;2.13;1.40;;;19.20;99.90;;;;;;5089635;28;20055;-73
2022/10/16 09:17:26;;;;;;;8.35;1.50;;;19.30;99.90;;;;;;5083032;28;20107;-74
2022/10/16 09:20:03;;;;;;;3.78;1.38;;;19.40;99.90;;;;;;5092232;28;20084;-74
2022/10/16 09:22:31;;;;;;;4.15;1.67;;;19.60;99.90;;;;;;5091258;28;20055;-72
2022/10/16 09:25:00;;;;;;;5.78;1.40;;;19.80;99.90;;;;;;5090786;28;20062;-69
2022/10/16 09:27:26;;;;;;;3.47;1.67;;;20.00;99.90;;;;;;5094060;28;20024;-70
2022/10/16 09:29:52;;;;;;;4.20;1.60;;;20.00;99.90;;;;;;5089857;28;20031;-71
2022/10/16 09:32:20;;;;;;;4.10;1.40;;;19.90;99.90;;;;;;5086204;28;20085;-71
2022/10/16 09:34:56;;;;;;;1.40;1.30;;;19.90;99.90;;;;;;5081339;28;20077;-71
2022/10/16 09:37:23;;;;;;;1.58;1.17;;;19.80;99.90;;;;;;5088479;28;20028;-71
2022/10/16 09:39:51;;;;;;;3.60;1.70;;;19.80;99.90;;;;;;5092344;28;20020;-69
2022/10/16 09:42:23;;;;;;;4.28;1.25;;;19.90;99.90;;;;;;5086017;28;20125;-69
2022/10/16 09:44:53;;;;;;;3.67;1.67;;;20.00;99.90;;;;;;5084052;28;20538;-69
2022/10/16 09:47:23;;;;;;;4.47;1.58;;;20.10;99.90;;;;;;5091004;28;20541;-70
2022/10/16 09:50:22;;;;;;;5.55;1.42;;;20.10;99.90;;;;;;5091890;28;20056;-69
2022/10/16 09:52:47;;;;;;;5.93;1.55;;;20.20;99.90;;;;;;5089001;28;20032;-69
2022/10/16 09:55:18;;;;;;;1.98;1.05;;;20.20;99.90;;;;;;5090620;28;20028;-69
2022/10/16 09:57:54;;;;;;;2.30;1.20;;;20.30;99.90;;;;;;5091714;28;20073;-70
2022/10/16 10:00:24;;;;;;;2.42;1.70;;;20.40;99.90;;;;;;5090815;28;20445;-71
2022/10/16 10:02:50;;;;;;;;;;;20.40;99.90;;;;;;5092641;28;20469;-69
2022/10/16 10:05:27;;;;;;;3.35;1.65;;;20.60;99.90;;;;;;5084768;28;19914;-74
2022/10/16 10:07:59;;;;;;;11.45;8.40;;;20.60;99.90;;;;;;5079048;28;20042;-73
2022/10/16 10:10:34;;;;;;;3.60;1.63;;;20.60;99.90;;;;;;5081788;28;20055;-72
2022/10/16 10:13:00;;;;;;;4.25;1.42;;;20.80;99.90;;;;;;5082313;28;20031;-72
2022/10/16 10:15:29;;;;;;;3.45;1.67;;;20.90;99.90;;;;;;5089406;28;20043;-73
2022/10/16 10:17:57;;;;;;;4.93;1.50;;;20.90;99.90;;;;;;5073325;28;20028;-69
2022/10/16 10:20:34;;;;;;;1.55;1.42;;;20.90;99.90;;;;;;5089327;28;20115;-67
2022/10/16 10:23:01;;;;;;;6.85;2.85;;;20.90;99.90;;;;;;5085344;28;20390;-67
2022/10/16 10:25:53;;;;;;;4.07;1.60;;;20.90;99.90;;;;;;5083536;28;20111;-69
2022/10/16 10:28:30;;;;;;;1.40;1.27;;;20.90;99.90;;;;;;5084427;28;20048;-76
2022/10/16 10:31:03;;;;;;;4.45;1.60;;;21.00;99.90;;;;;;5089260;28;20069;-73
2022/10/16 10:33:50;;;;;;;3.28;1.60;;;21.00;99.90;;;;;;5091407;28;20485;-76
2022/10/16 10:36:19;;;;;;;3.63;1.52;;;21.10;99.90;;;;;;5097829;28;20118;-76
2022/10/16 10:38:59;;;;;;;4.68;1.40;;;21.20;99.90;;;;;;5092041;28;20063;-78
2022/10/16 10:41:49;;;;;;;8.45;1.80;;;21.30;99.90;;;;;;5087599;28;20029;-68
2022/10/16 10:44:48;;;;;;;3.88;2.00;;;21.50;99.90;;;;;;5091003;28;20027;-70
2022/10/16 10:47:31;;;;;;;2.70;1.80;;;21.70;99.90;;;;;;5088909;28;20034;-69
2022/10/16 10:50:24;;;;;;;4.32;1.73;;;21.80;99.90;;;;;;5090997;28;20048;-75
2022/10/16 10:52:58;;;;;;;5.68;1.80;;;21.90;99.90;;;;;;5082265;28;20039;-75
2022/10/16 10:55:27;;;;;;;4.53;1.55;;;22.00;99.90;;;;;;5089075;28;20064;-69
2022/10/16 10:58:15;;;;;;;5.18;2.15;;;22.10;99.90;;;;;;5085530;28;20039;-69
2022/10/16 11:00:49;;;;;;;2.53;1.52;;;22.20;99.90;;;;;;5068999;28;20033;-69
2022/10/16 11:03:30;;;;;;;3.67;1.55;;;22.20;99.90;;;;;;5085676;28;20059;-71
2022/10/16 11:06:10;;;;;;;5.15;1.60;;;22.30;99.90;;;;;;5088906;28;20414;-71
2022/10/16 11:08:39;;;;;;;1.67;1.52;;;22.30;99.90;;;;;;5080857;28;20108;-71
2022/10/16 11:11:15;;;;;;;5.50;2.30;;;22.40;99.90;;;;;;5095297;28;20035;-70
2022/10/16 11:14:00;;;;;;;2.00;1.52;;;22.40;99.90;;;;;;5089604;28;20250;-70
2022/10/16 11:16:43;;;;;;;5.63;1.50;;;22.50;99.90;;;;;;5092994;28;20372;-70
2022/10/16 11:19:12;;;;;;;7.70;1.38;;;22.60;99.90;;;;;;5095352;28;20077;-71
2022/10/16 11:21:48;;;;;;;2.27;1.63;;;22.80;99.90;;;;;;5093662;28;20032;-71
2022/10/16 11:24:42;;;;;;;3.95;1.50;;;22.80;99.90;;;;;;5093457;28;20377;-70
2022/10/16 11:27:11;;;;;;;1.60;1.50;;;22.90;99.90;;;;;;5087584;28;20051;-70
2022/10/16 11:29:59;;;;;;;2.38;1.50;;;22.90;99.90;;;;;;5092279;28;20069;-69
2022/10/16 11:32:34;;;;;;;2.75;1.40;;;22.90;99.90;;;;;;5090694;28;20040;-70
2022/10/16 11:35:15;;;;;;;3.15;1.48;;;23.00;99.90;;;;;;5071508;28;20153;-70
2022/10/16 11:37:45;;;;;;;4.95;1.55;;;23.00;99.90;;;;;;5092580;28;20024;-70
2022/10/16 11:40:27;;;;;;;4.50;1.67;;;23.10;99.90;;;;;;5094742;28;20016;-70
2022/10/16 11:43:14;;;;;;;3.92;1.23;;;23.20;99.90;;;;;;5094716;28;20085;-70
2022/10/16 11:45:45;;;;;;;2.22;1.35;;;23.40;99.90;;;;;;5092790;28;20024;-70
2022/10/16 11:48:35;;;;;;;3.88;1.50;;;23.40;99.90;;;;;;5094359;28;20093;-70
2022/10/16 11:51:31;;;;;;;4.32;1.42;;;23.50;99.90;;;;;;5088808;28;20107;-67
2022/10/16 11:54:01;;;;;;;5.97;1.75;;;23.70;99.90;;;;;;5089209;28;20099;-69
2022/10/16 11:56:30;;;;;;;3.30;1.88;;;23.80;99.90;;;;;;5091936;28;20056;-69
2022/10/16 11:59:04;;;;;;;4.57;4.18;;;24.00;99.90;;;;;;5093988;28;20028;-69
2022/10/16 12:01:54;;;;;;;4.53;1.55;;;24.30;99.90;;;;;;5082501;28;20090;-68
2022/10/16 12:04:29;;;;;;;2.80;0.82;;;24.80;99.90;;;;;;5093659;28;20465;-71
2022/10/16 12:07:27;;;;;;;3.13;1.10;;;25.20;99.90;;;;;;5095545;28;20024;-68
2022/10/16 12:09:53;;;;;;;4.00;1.30;;;25.90;99.80;;;;;;5061035;28;20040;-69
2022/10/16 12:12:39;;;;;;;1.45;1.13;;;26.30;99.20;;;;;;5087681;28;20039;-70
2022/10/16 12:15:33;;;;;;;1.77;1.27;;;26.50;98.40;;;;;;5094407;28;20028;-69
2022/10/16 12:17:58;;;;;;;3.53;1.40;;;26.60;97.60;;;;;;5091171;28;20528;-69
2022/10/16 12:20:32;;;;;;;1.83;1.20;;;26.50;97.40;;;;;;5092165;28;20108;-69
2022/10/16 12:23:06;;;;;;;3.72;1.10;;;26.60;96.40;;;;;;5093755;28;20538;-69
2022/10/16 12:25:46;;;;;;;5.05;1.70;;;26.80;95.90;;;;;;5092144;28;20020;-69
2022/10/16 12:28:14;;;;;;;2.47;1.27;;;27.00;95.50;;;;;;5087011;28;20028;-69
2022/10/16 12:30:42;;;;;;;2.00;0.98;;;27.40;94.40;;;;;;5092867;28;20028;-69
2022/10/16 12:33:31;;;;;;;1.77;1.40;;;27.50;94.70;;;;;;5093352;28;20089;-69
2022/10/16 12:35:59;;;;;;;5.53;1.20;;;27.50;93.90;;;;;;5091911;28;20028;-69
2022/10/16 12:38:34;;;;;;;1.10;1.00;;;27.30;93.30;;;;;;5100402;28;20376;-70
2022/10/16 12:41:05;;;;;;;3.10;1.50;;;27.10;93.80;;;;;;5093024;28;20024;-69
2022/10/16 12:43:42;;;;;;;1.77;1.60;;;27.20;94.00;;;;;;5087140;28;20111;-69
2022/10/16 12:46:13;;;;;;;1.67;1.23;;;27.50;93.80;;;;;;5081644;28;20028;-70
2022/10/16 12:48:43;;;;;;;1.63;1.10;;;27.80;93.00;;;;;;5092071;28;20056;-69
2022/10/16 12:51:33;;;;;;;4.57;1.17;;;27.80;92.50;;;;;;5086696;28;20024;-69
2022/10/16 12:54:05;;;;;;;3.30;1.35;;;27.90;92.50;;;;;;5079842;28;20039;-68
2022/10/16 12:57:05;;;;;;;3.28;1.48;;;27.90;92.20;;;;;;5091267;28;20040;-69
2022/10/16 12:59:49;;;;;;;1.83;1.10;;;27.70;92.30;;;;;;5066896;28;20364;-70
2022/10/16 13:02:51;;;;;;;2.05;1.10;;;27.20;92.90;;;;;;5086122;28;20044;-69
2022/10/16 13:05:29;;;;;;;2.83;1.15;;;26.70;92.90;;;;;;5091608;28;20016;-70
2022/10/16 13:08:09;;;;;;;4.80;1.17;;;26.10;93.50;;;;;;5087466;28;20024;-69
2022/10/16 13:10:47;;;;;;;6.47;1.40;;;25.60;94.00;;;;;;5091911;28;20565;-69